createdAt,value
2016-07-26T00:00:24.688Z,0
2016-07-26T00:01:24.550Z,0
2016-07-26T00:02:24.528Z,0
2016-07-26T00:04:24.539Z,0
2016-07-26T00:05:24.631Z,0
2016-07-26T00:06:24.675Z,0
2016-07-26T00:07:24.509Z,0
2016-07-26T00:08:26.234Z,0
2016-07-26T00:09:24.534Z,0
2016-07-26T00:10:24.559Z,0
2016-07-26T00:11:24.548Z,0
2016-07-26T00:12:24.875Z,0
2016-07-26T00:13:24.550Z,0
2016-07-26T00:14:24.526Z,0
2016-07-26T00:27:24.457Z,0
2016-07-26T00:27:41.593Z,0
2016-07-26T00:28:41.491Z,0
2016-07-26T00:29:41.504Z,0
2016-07-26T00:30:41.507Z,0
2016-07-26T00:31:41.538Z,0
2016-07-26T00:32:41.578Z,0
2016-07-26T00:33:40.138Z,0
2016-07-26T00:34:41.537Z,0
2016-07-26T00:35:42.475Z,0
2016-07-26T00:36:41.532Z,0
2016-07-26T00:37:41.527Z,0
2016-07-26T00:38:41.536Z,0
2016-07-26T00:39:42.209Z,0
2016-07-26T00:40:41.698Z,0
2016-07-26T00:41:41.584Z,0
2016-07-26T00:42:41.531Z,0
2016-07-26T00:43:43.951Z,0
2016-07-26T00:44:41.513Z,0
2016-07-26T00:45:41.569Z,0
2016-07-26T00:46:41.588Z,0
2016-07-26T00:47:41.626Z,0
2016-07-26T00:48:40.054Z,0
2016-07-26T00:49:41.490Z,0
2016-07-26T00:50:41.543Z,0
2016-07-26T00:51:41.494Z,0
2016-07-26T00:52:41.556Z,0
2016-07-26T00:53:43.716Z,0
2016-07-26T00:54:41.465Z,0
2016-07-26T00:55:41.511Z,0
2016-07-26T00:56:41.483Z,0
2016-07-26T00:57:41.638Z,0
2016-07-26T00:58:41.533Z,0
2016-07-26T00:59:41.510Z,0
2016-07-26T01:00:41.520Z,0
2016-07-26T01:01:41.497Z,0
2016-07-26T01:02:41.558Z,0
2016-07-26T01:04:41.530Z,0
2016-07-26T01:05:41.551Z,0
2016-07-26T01:06:41.845Z,0
2016-07-26T01:07:41.571Z,0
2016-07-26T01:08:41.539Z,0
2016-07-26T01:09:41.608Z,0
2016-07-26T01:10:41.580Z,0
2016-07-26T01:11:41.618Z,0
2016-07-26T01:12:41.521Z,0
2016-07-26T01:13:43.294Z,0
2016-07-26T01:26:42.034Z,0
2016-07-26T01:27:01.182Z,0
2016-07-26T01:28:01.704Z,0
2016-07-26T01:29:01.761Z,0
2016-07-26T01:42:01.404Z,0
2016-07-26T01:42:19.459Z,0
2016-07-26T01:43:18.809Z,0
2016-07-26T01:44:18.785Z,0
2016-07-26T01:45:18.770Z,0
2016-07-26T01:46:18.810Z,0
2016-07-26T01:47:18.823Z,0
2016-07-26T01:48:20.038Z,0
2016-07-26T01:49:18.771Z,0
2016-07-26T01:50:18.813Z,0
2016-07-26T01:51:18.897Z,0
2016-07-26T01:52:19.038Z,0
2016-07-26T01:53:18.715Z,0
2016-07-26T01:54:18.764Z,0
2016-07-26T01:55:18.828Z,0
2016-07-26T01:56:19.563Z,0
2016-07-26T01:57:18.733Z,0
2016-07-26T01:58:18.799Z,0
2016-07-26T01:59:18.775Z,0
2016-07-26T02:00:18.775Z,0
2016-07-26T02:01:18.793Z,0
2016-07-26T02:02:18.765Z,0
2016-07-26T02:03:18.789Z,0
2016-07-26T02:04:18.761Z,0
2016-07-26T02:05:18.832Z,0
2016-07-26T02:06:18.762Z,0
2016-07-26T02:07:18.829Z,0
2016-07-26T02:08:19.501Z,0
2016-07-26T02:09:19.981Z,0
2016-07-26T02:10:18.814Z,0
2016-07-26T02:11:18.770Z,0
2016-07-26T02:12:18.803Z,0
2016-07-26T02:13:18.839Z,0
2016-07-26T02:14:18.865Z,0
2016-07-26T02:15:18.738Z,0
2016-07-26T02:16:18.907Z,0
2016-07-26T02:17:18.816Z,0
2016-07-26T02:18:18.737Z,0
2016-07-26T02:19:18.935Z,0
2016-07-26T02:20:18.763Z,0
2016-07-26T02:21:19.149Z,0
2016-07-26T02:22:18.748Z,0
2016-07-26T02:23:18.799Z,0
2016-07-26T02:24:18.807Z,0
2016-07-26T02:25:18.798Z,0
2016-07-26T02:26:18.956Z,0
2016-07-26T02:27:18.722Z,0
2016-07-26T02:28:18.835Z,0
2016-07-26T02:29:19.189Z,0
2016-07-26T02:30:18.827Z,0
2016-07-26T02:31:18.771Z,0
2016-07-26T02:32:18.788Z,0
2016-07-26T02:33:18.844Z,0
2016-07-26T02:34:18.933Z,0
2016-07-26T02:35:18.727Z,0
2016-07-26T02:36:18.755Z,0
2016-07-26T02:37:18.848Z,0
2016-07-26T02:38:18.893Z,0
2016-07-26T02:39:18.810Z,0
2016-07-26T02:40:18.893Z,0
2016-07-26T02:41:18.866Z,0
2016-07-26T02:42:18.778Z,0
2016-07-26T02:43:20.247Z,0
2016-07-26T02:44:18.938Z,0
2016-07-26T02:45:19.060Z,0
2016-07-26T02:46:18.779Z,0
2016-07-26T02:47:18.799Z,0
2016-07-26T02:48:18.761Z,0
2016-07-26T02:49:18.997Z,0
2016-07-26T02:50:19.826Z,0
2016-07-26T02:51:18.763Z,0
2016-07-26T02:52:19.630Z,0
2016-07-26T02:53:18.749Z,0
2016-07-26T02:54:18.877Z,0
2016-07-26T02:55:18.786Z,0
2016-07-26T02:56:18.869Z,0
2016-07-26T02:57:18.801Z,0
2016-07-26T02:58:18.801Z,0
2016-07-26T02:59:19.236Z,0
2016-07-26T03:00:19.917Z,0
2016-07-26T03:01:18.789Z,0
2016-07-26T03:02:18.798Z,0
2016-07-26T03:03:18.739Z,4
2016-07-26T03:05:19.411Z,4
2016-07-26T03:06:18.910Z,4
2016-07-26T03:07:18.784Z,4
2016-07-26T03:08:18.766Z,0
2016-07-26T03:09:18.787Z,0
2016-07-26T03:10:18.821Z,0
2016-07-26T03:11:18.845Z,0
2016-07-26T03:12:18.908Z,4
2016-07-26T03:13:19.366Z,4
2016-07-26T03:14:19.114Z,4
2016-07-26T03:15:18.765Z,4
2016-07-26T03:16:18.771Z,8
2016-07-26T03:17:20.224Z,4
2016-07-26T03:18:18.831Z,8
2016-07-26T03:19:22.358Z,8
2016-07-26T03:20:18.782Z,8
2016-07-26T03:21:18.829Z,8
2016-07-26T03:22:18.760Z,8
2016-07-26T03:23:18.864Z,8
2016-07-26T03:24:18.778Z,12
2016-07-26T03:25:18.887Z,16
2016-07-26T03:26:18.785Z,16
2016-07-26T03:27:18.795Z,24
2016-07-26T03:28:19.172Z,28
2016-07-26T03:29:18.829Z,36
2016-07-26T03:30:18.831Z,40
2016-07-26T03:31:18.811Z,40
2016-07-26T03:32:18.816Z,48
2016-07-26T03:33:18.823Z,52
2016-07-26T03:35:18.821Z,60
2016-07-26T03:36:18.850Z,56
2016-07-26T03:37:18.835Z,60
2016-07-26T03:38:18.857Z,64
2016-07-26T03:39:18.790Z,72
2016-07-26T03:40:18.905Z,84
2016-07-26T03:41:19.133Z,96
2016-07-26T03:42:18.843Z,112
2016-07-26T03:43:18.848Z,124
2016-07-26T03:44:18.936Z,136
2016-07-26T03:45:18.827Z,148
2016-07-26T03:46:18.812Z,160
2016-07-26T03:47:19.303Z,176
2016-07-26T03:48:18.886Z,192
2016-07-26T03:50:18.838Z,224
2016-07-26T03:51:18.904Z,244
2016-07-26T03:52:18.889Z,256
2016-07-26T03:53:18.820Z,276
2016-07-26T03:54:19.026Z,296
2016-07-26T03:55:18.793Z,316
2016-07-26T03:56:18.816Z,336
2016-07-26T03:57:18.793Z,352
2016-07-26T03:58:18.832Z,372
2016-07-26T03:59:18.908Z,400
2016-07-26T04:00:19.062Z,420
2016-07-26T04:01:20.790Z,444
2016-07-26T04:02:18.874Z,460
2016-07-26T04:03:19.066Z,480
2016-07-26T04:05:18.817Z,520
2016-07-26T04:06:18.848Z,552
2016-07-26T04:07:18.794Z,596
2016-07-26T04:08:18.830Z,640
2016-07-26T04:09:18.845Z,716
2016-07-26T04:10:18.874Z,768
2016-07-26T04:11:19.389Z,808
2016-07-26T04:12:18.841Z,836
2016-07-26T04:13:18.885Z,864
2016-07-26T04:14:18.865Z,876
2016-07-26T04:15:18.826Z,880
2016-07-26T04:16:18.849Z,916
2016-07-26T04:17:18.887Z,964
2016-07-26T04:18:18.828Z,1020
2016-07-26T04:20:18.860Z,1088
2016-07-26T04:21:18.860Z,1120
2016-07-26T04:22:18.848Z,1140
2016-07-26T04:23:18.817Z,1152
2016-07-26T04:24:18.835Z,1180
2016-07-26T04:25:18.806Z,1208
2016-07-26T04:26:18.832Z,1220
2016-07-26T04:27:18.839Z,1184
2016-07-26T04:28:18.880Z,1152
2016-07-26T04:29:18.887Z,1180
2016-07-26T04:30:18.986Z,1188
2016-07-26T04:31:18.880Z,1208
2016-07-26T04:32:18.852Z,1240
2016-07-26T04:33:18.858Z,1244
2016-07-26T04:35:18.876Z,1320
2016-07-26T04:36:18.914Z,1396
2016-07-26T04:49:34.594Z,2396
2016-07-26T04:50:35.791Z,2528
2016-07-26T04:51:35.143Z,2580
2016-07-26T04:52:35.185Z,2680
2016-07-26T04:53:35.109Z,2776
2016-07-26T04:54:35.030Z,2788
2016-07-26T04:55:35.065Z,2672
2016-07-26T04:56:35.093Z,2648
2016-07-26T04:57:35.086Z,2896
2016-07-26T04:58:35.098Z,3088
2016-07-26T04:59:35.126Z,3080
2016-07-26T05:00:35.092Z,3148
2016-07-26T05:01:35.064Z,3388
2016-07-26T05:02:35.091Z,3776
2016-07-26T05:03:35.115Z,4316
2016-07-26T05:04:34.658Z,5008
2016-07-26T05:05:35.150Z,5288
2016-07-26T05:06:35.742Z,5220
2016-07-26T05:07:35.103Z,5360
2016-07-26T05:08:35.101Z,6012
2016-07-26T05:09:35.069Z,6212
2016-07-26T05:10:35.238Z,5964
2016-07-26T05:11:35.357Z,5660
2016-07-26T05:12:35.151Z,3972
2016-07-26T05:13:35.674Z,3488
2016-07-26T05:14:35.237Z,3496
2016-07-26T05:15:35.157Z,3560
2016-07-26T05:16:35.104Z,3712
2016-07-26T05:17:35.056Z,3928
2016-07-26T05:18:35.148Z,4472
2016-07-26T05:19:34.602Z,4500
2016-07-26T05:20:35.120Z,5868
2016-07-26T05:21:35.170Z,5480
2016-07-26T05:22:35.877Z,5168
2016-07-26T05:23:35.248Z,5336
2016-07-26T05:24:35.074Z,5284
2016-07-26T05:25:35.093Z,5360
2016-07-26T05:26:35.069Z,5280
2016-07-26T05:27:35.035Z,5140
2016-07-26T05:28:35.176Z,5120
2016-07-26T05:29:35.121Z,5200
2016-07-26T05:30:35.156Z,5596
2016-07-26T05:31:35.591Z,5656
2016-07-26T05:32:35.124Z,5336
2016-07-26T05:33:36.379Z,5508
2016-07-26T05:34:35.094Z,5592
2016-07-26T05:35:35.206Z,5432
2016-07-26T05:36:37.503Z,5768
2016-07-26T05:37:35.144Z,5812
2016-07-26T05:38:35.223Z,5880
2016-07-26T05:39:35.075Z,6160
2016-07-26T05:40:35.126Z,6404
2016-07-26T05:41:35.158Z,6560
2016-07-26T05:42:35.137Z,6516
2016-07-26T05:43:35.131Z,6292
2016-07-26T05:44:36.884Z,6624
2016-07-26T05:46:36.233Z,6120
2016-07-26T05:47:36.239Z,5936
2016-07-26T05:48:35.623Z,6056
2016-07-26T05:49:34.982Z,6152
2016-07-26T05:50:35.146Z,6196
2016-07-26T05:51:35.183Z,6780
2016-07-26T05:52:35.370Z,7816
2016-07-26T05:53:36.571Z,9548
2016-07-26T05:54:40.584Z,11364
2016-07-26T05:55:35.188Z,11052
2016-07-26T05:56:35.097Z,10496
2016-07-26T05:57:35.095Z,11788
2016-07-26T05:58:35.045Z,11596
2016-07-26T05:59:35.066Z,9024
2016-07-26T06:00:35.959Z,7532
2016-07-26T06:01:35.074Z,6332
2016-07-26T06:02:35.600Z,5988
2016-07-26T06:03:35.083Z,6056
2016-07-26T06:04:34.575Z,6072
2016-07-26T06:05:35.075Z,6280
2016-07-26T06:06:35.221Z,6328
2016-07-26T06:07:35.174Z,6264
2016-07-26T06:08:35.805Z,6308
2016-07-26T06:09:36.087Z,6152
2016-07-26T06:10:35.123Z,6248
2016-07-26T06:11:35.121Z,6136
2016-07-26T06:12:35.176Z,6052
2016-07-26T06:13:35.136Z,6040
2016-07-26T06:14:35.095Z,6056
2016-07-26T06:15:37.047Z,6216
2016-07-26T06:16:35.109Z,6192
2016-07-26T06:17:35.099Z,6224
2016-07-26T06:18:35.092Z,6408
2016-07-26T06:19:34.627Z,6596
2016-07-26T06:20:35.098Z,6668
2016-07-26T06:21:35.622Z,6800
2016-07-26T06:22:35.109Z,6992
2016-07-26T06:23:35.626Z,7036
2016-07-26T06:24:35.097Z,7092
2016-07-26T06:25:35.157Z,7240
2016-07-26T06:26:35.216Z,7592
2016-07-26T06:27:35.615Z,7588
2016-07-26T06:28:35.112Z,7656
2016-07-26T06:29:35.120Z,7788
2016-07-26T06:30:35.165Z,7908
2016-07-26T06:31:35.078Z,7756
2016-07-26T06:32:35.174Z,7908
2016-07-26T06:33:35.104Z,8024
2016-07-26T06:34:34.752Z,7708
2016-07-26T06:35:35.170Z,7792
2016-07-26T06:36:35.149Z,7884
2016-07-26T06:37:35.191Z,7780
2016-07-26T06:38:35.126Z,7804
2016-07-26T06:39:35.203Z,7924
2016-07-26T06:40:35.139Z,8048
2016-07-26T06:41:35.098Z,8044
2016-07-26T06:42:35.077Z,7800
2016-07-26T06:43:35.097Z,7764
2016-07-26T06:44:35.153Z,7648
2016-07-26T06:45:35.135Z,7672
2016-07-26T06:46:35.102Z,7668
2016-07-26T06:47:35.076Z,7852
2016-07-26T06:48:35.150Z,7992
2016-07-26T06:49:34.679Z,8068
2016-07-26T06:50:35.138Z,8092
2016-07-26T06:51:35.149Z,8324
2016-07-26T06:52:35.156Z,8160
2016-07-26T06:53:35.265Z,7968
2016-07-26T06:54:35.194Z,7860
2016-07-26T06:55:35.208Z,7712
2016-07-26T06:56:35.222Z,7544
2016-07-26T06:57:35.223Z,7496
2016-07-26T06:58:35.285Z,7848
2016-07-26T06:59:35.230Z,9492
2016-07-26T07:00:35.229Z,9312
2016-07-26T07:01:35.233Z,7700
2016-07-26T07:02:35.327Z,7216
2016-07-26T07:03:35.239Z,7172
2016-07-26T07:04:34.671Z,7608
2016-07-26T07:05:35.080Z,8388
2016-07-26T07:06:35.180Z,9236
2016-07-26T07:07:35.212Z,9364
2016-07-26T07:08:35.099Z,9836
2016-07-26T07:09:35.144Z,10712
2016-07-26T07:10:35.193Z,11496
2016-07-26T07:11:35.154Z,11944
2016-07-26T07:12:35.260Z,11360
2016-07-26T07:13:35.245Z,12460
2016-07-26T07:14:35.196Z,10456
2016-07-26T07:15:35.252Z,10920
2016-07-26T07:16:35.286Z,10456
2016-07-26T07:17:35.451Z,10908
2016-07-26T07:18:35.133Z,11188
2016-07-26T07:19:34.837Z,12364
2016-07-26T07:20:35.199Z,14852
2016-07-26T07:21:35.121Z,12240
2016-07-26T07:22:35.145Z,10180
2016-07-26T07:35:35.773Z,9640
2016-07-26T07:35:52.929Z,9260
2016-07-26T07:36:53.024Z,9684
2016-07-26T07:37:52.860Z,10484
2016-07-26T07:38:52.869Z,13280
2016-07-26T07:39:52.844Z,13484
2016-07-26T07:40:52.877Z,10608
2016-07-26T07:41:52.819Z,10700
2016-07-26T07:42:52.878Z,10240
2016-07-26T07:43:52.838Z,10416
2016-07-26T07:44:52.870Z,11240
2016-07-26T07:45:52.864Z,12732
2016-07-26T07:46:52.857Z,14392
2016-07-26T07:47:52.839Z,14760
2016-07-26T07:48:52.849Z,14496
2016-07-26T07:49:52.832Z,14360
2016-07-26T07:51:04.943Z,16156
2016-07-26T07:51:54.605Z,21600
2016-07-26T07:52:52.954Z,29760
2016-07-26T07:53:52.915Z,33440
2016-07-26T07:54:52.955Z,44736
2016-07-26T07:55:52.932Z,36224
2016-07-26T07:56:53.133Z,42816
2016-07-26T07:57:53.193Z,26912
2016-07-26T07:58:52.850Z,36096
2016-07-26T07:59:52.896Z,44736
2016-07-26T08:00:52.901Z,14656
2016-07-26T08:01:52.888Z,46720
2016-07-26T08:02:52.875Z,46336
2016-07-26T08:03:52.923Z,46016
2016-07-26T08:04:52.905Z,45984
2016-07-26T08:05:52.972Z,50656
2016-07-26T08:06:53.033Z,47552
2016-07-26T08:07:52.975Z,13632
2016-07-26T08:08:52.913Z,22688
2016-07-26T08:09:52.997Z,9768
2016-07-26T08:10:52.909Z,12604
2016-07-26T08:11:52.888Z,13872
2016-07-26T08:12:52.879Z,39712
2016-07-26T08:13:52.866Z,13300
2016-07-26T08:14:52.907Z,10356
2016-07-26T08:15:53.291Z,10072
2016-07-26T08:16:52.848Z,8428
2016-07-26T08:17:52.940Z,8112
2016-07-26T08:18:53.129Z,35968
2016-07-26T08:19:52.996Z,27040
2016-07-26T08:20:53.070Z,30464
2016-07-26T08:21:52.890Z,42560
2016-07-26T08:22:52.877Z,27456
2016-07-26T08:23:53.080Z,64544
2016-07-26T08:24:53.107Z,59776
2016-07-26T08:25:52.945Z,54144
2016-07-26T08:26:52.879Z,50048
2016-07-26T08:27:52.903Z,43136
2016-07-26T08:28:53.222Z,30976
2016-07-26T08:29:53.016Z,23072
2016-07-26T08:30:53.159Z,23680
2016-07-26T08:31:52.970Z,29696
2016-07-26T08:32:52.904Z,26464
2016-07-26T08:33:52.924Z,20160
2016-07-26T08:34:52.874Z,28512
2016-07-26T08:35:52.890Z,38560
2016-07-26T08:36:52.919Z,63968
2016-07-26T08:37:53.544Z,65600
2016-07-26T08:38:53.104Z,25728
2016-07-26T08:39:52.976Z,44736
2016-07-26T08:40:52.945Z,41184
2016-07-26T08:41:53.028Z,43584
2016-07-26T08:42:52.954Z,53056
2016-07-26T08:43:53.081Z,62240
2016-07-26T08:44:52.893Z,59200
2016-07-26T08:45:53.047Z,47456
2016-07-26T08:46:52.857Z,15324
2016-07-26T08:47:52.888Z,28256
2016-07-26T08:48:52.880Z,45920
2016-07-26T08:49:52.951Z,48448
2016-07-26T08:50:52.903Z,49952
2016-07-26T08:51:52.912Z,11740
2016-07-26T08:52:52.984Z,11960
2016-07-26T08:53:53.058Z,12732
2016-07-26T08:54:52.998Z,41440
2016-07-26T08:55:53.037Z,52576
2016-07-26T08:56:52.997Z,48704
2016-07-26T08:57:52.976Z,22080
2016-07-26T08:58:52.892Z,17696
2016-07-26T08:59:52.890Z,18720
2016-07-26T09:00:52.895Z,34464
2016-07-26T09:01:52.900Z,52896
2016-07-26T09:02:52.917Z,32896
2016-07-26T09:03:53.202Z,52768
2016-07-26T09:04:53.187Z,29632
2016-07-26T09:05:53.644Z,56480
2016-07-26T09:06:52.902Z,62688
2016-07-26T09:07:52.958Z,64000
2016-07-26T09:08:53.002Z,45856
2016-07-26T09:09:52.906Z,44864
2016-07-26T09:10:52.901Z,21184
2016-07-26T09:11:52.963Z,43360
2016-07-26T09:12:52.955Z,22496
2016-07-26T09:13:52.950Z,41504
2016-07-26T09:14:52.983Z,41184
2016-07-26T09:15:53.295Z,65024
2016-07-26T09:16:53.023Z,62336
2016-07-26T09:17:53.116Z,64704
2016-07-26T09:18:53.013Z,15212
2016-07-26T09:19:52.960Z,13736
2016-07-26T09:20:52.958Z,18688
2016-07-26T09:21:53.058Z,34112
2016-07-26T09:22:52.878Z,34144
2016-07-26T09:23:52.968Z,20000
2016-07-26T09:24:52.992Z,36768
2016-07-26T09:25:52.978Z,67168
2016-07-26T09:26:53.106Z,68672
2016-07-26T09:27:53.045Z,70144
2016-07-26T09:28:53.035Z,79584
2016-07-26T09:29:53.390Z,78464
2016-07-26T09:30:52.883Z,79008
2016-07-26T09:31:52.903Z,78720
2016-07-26T09:32:52.910Z,75072
2016-07-26T09:33:52.961Z,75520
2016-07-26T09:34:52.997Z,75424
2016-07-26T09:35:53.529Z,72992
2016-07-26T09:36:53.025Z,71776
2016-07-26T09:38:01.019Z,71456
2016-07-26T09:38:53.049Z,67104
2016-07-26T09:39:53.042Z,87296
2016-07-26T09:40:53.238Z,85760
2016-07-26T09:41:53.845Z,79904
2016-07-26T09:42:52.947Z,73792
2016-07-26T09:43:52.917Z,72864
2016-07-26T09:44:52.955Z,70944
2016-07-26T09:45:52.905Z,71904
2016-07-26T09:46:52.958Z,73280
2016-07-26T09:47:53.065Z,76000
2016-07-26T09:48:52.938Z,78368
2016-07-26T09:49:53.118Z,80832
2016-07-26T09:50:53.013Z,85504
2016-07-26T09:51:53.071Z,87840
2016-07-26T09:52:52.919Z,87456
2016-07-26T09:53:52.975Z,81920
2016-07-26T09:54:58.114Z,72192
2016-07-26T09:55:52.938Z,68000
2016-07-26T09:56:53.036Z,66944
2016-07-26T09:57:52.958Z,70208
2016-07-26T09:58:53.095Z,80224
2016-07-26T09:59:53.007Z,88672
2016-07-26T10:00:53.030Z,93248
2016-07-26T10:01:52.932Z,92896
2016-07-26T10:02:52.956Z,80320
2016-07-26T10:03:52.985Z,73664
2016-07-26T10:04:52.985Z,71712
2016-07-26T10:05:52.972Z,73216
2016-07-26T10:06:52.953Z,23328
2016-07-26T10:07:53.033Z,15428
2016-07-26T10:08:52.970Z,11984
2016-07-26T10:09:53.119Z,10948
2016-07-26T10:10:53.024Z,15060
2016-07-26T10:11:52.947Z,89024
2016-07-26T10:12:52.948Z,81504
2016-07-26T10:13:52.955Z,77152
2016-07-26T10:14:52.978Z,77696
2016-07-26T10:15:53.041Z,80256
2016-07-26T10:16:54.837Z,77760
2016-07-26T10:17:54.118Z,76832
2016-07-26T10:18:53.141Z,74112
2016-07-26T10:19:54.684Z,68864
2016-07-26T10:20:53.103Z,69824
2016-07-26T10:21:53.047Z,69568
2016-07-26T10:22:53.031Z,72672
2016-07-26T10:23:53.876Z,73216
2016-07-26T10:24:53.006Z,70048
2016-07-26T10:25:52.967Z,65632
2016-07-26T10:26:53.007Z,66336
2016-07-26T10:27:53.041Z,67712
2016-07-26T10:28:52.951Z,72544
2016-07-26T10:29:53.142Z,77280
2016-07-26T10:30:53.002Z,79744
2016-07-26T10:31:53.674Z,74432
2016-07-26T10:32:53.079Z,69536
2016-07-26T10:33:53.059Z,66016
2016-07-26T10:34:53.018Z,63648
2016-07-26T10:35:53.018Z,17696
2016-07-26T10:36:52.991Z,58336
2016-07-26T10:37:52.986Z,62080
2016-07-26T10:38:52.976Z,14264
2016-07-26T10:39:53.005Z,45312
2016-07-26T10:40:52.992Z,71040
2016-07-26T10:41:53.091Z,74112
2016-07-26T10:42:53.104Z,71360
2016-07-26T10:43:53.053Z,70432
2016-07-26T10:44:53.120Z,63168
2016-07-26T10:45:53.005Z,60416
2016-07-26T10:46:52.971Z,54240
2016-07-26T10:47:56.259Z,45184
2016-07-26T10:48:53.039Z,58336
2016-07-26T10:49:52.975Z,63520
2016-07-26T10:50:54.436Z,16176
2016-07-26T10:51:53.090Z,14732
2016-07-26T10:52:52.978Z,15968
2016-07-26T10:53:53.102Z,79008
2016-07-26T10:54:55.309Z,79936
2016-07-26T10:55:53.029Z,80224
2016-07-26T10:56:52.973Z,76672
2016-07-26T10:57:55.851Z,75584
2016-07-26T10:58:53.011Z,73120
2016-07-26T10:59:53.042Z,69056
2016-07-26T11:00:53.071Z,64736
2016-07-26T11:01:53.000Z,62336
2016-07-26T11:02:53.119Z,62880
2016-07-26T11:03:52.993Z,64000
2016-07-26T11:04:53.408Z,65632
2016-07-26T11:05:52.974Z,66496
2016-07-26T11:06:53.205Z,64064
2016-07-26T11:07:53.106Z,62848
2016-07-26T11:08:53.218Z,63232
2016-07-26T11:09:52.983Z,65600
2016-07-26T11:10:53.023Z,69824
2016-07-26T11:11:52.982Z,70112
2016-07-26T11:12:52.979Z,75744
2016-07-26T11:13:53.084Z,76384
2016-07-26T11:14:53.020Z,61792
2016-07-26T11:15:53.196Z,22528
2016-07-26T11:16:53.127Z,20544
2016-07-26T11:17:53.178Z,67904
2016-07-26T11:18:53.155Z,52480
2016-07-26T11:19:53.116Z,69152
2016-07-26T11:20:53.074Z,63520
2016-07-26T11:21:52.999Z,72576
2016-07-26T11:22:56.946Z,35616
2016-07-26T11:24:07.740Z,30048
2016-07-26T11:24:53.120Z,61888
2016-07-26T11:25:53.018Z,89056
2016-07-26T11:26:57.277Z,96704
2016-07-26T11:27:53.017Z,22048
2016-07-26T11:28:53.163Z,24192
2016-07-26T11:29:53.005Z,20992
2016-07-26T11:30:53.049Z,19392
2016-07-26T11:31:53.100Z,16768
2016-07-26T11:32:53.685Z,15456
2016-07-26T11:33:53.058Z,15628
2016-07-26T11:34:53.005Z,14440
2016-07-26T11:35:53.079Z,13708
2016-07-26T11:36:57.726Z,14436
2016-07-26T11:37:53.084Z,16608
2016-07-26T11:39:05.496Z,22432
2016-07-26T11:40:09.324Z,16352
2016-07-26T11:40:53.165Z,14244
2016-07-26T11:41:57.613Z,14632
2016-07-26T11:42:53.024Z,15168
2016-07-26T11:43:53.055Z,14676
2016-07-26T11:44:52.973Z,14832
2016-07-26T11:45:53.058Z,15496
2016-07-26T11:46:53.105Z,16160
2016-07-26T11:47:53.069Z,18400
2016-07-26T11:48:52.995Z,24736
2016-07-26T11:49:53.036Z,24256
2016-07-26T11:50:52.988Z,42016
2016-07-26T11:51:53.061Z,20672
2016-07-26T11:52:53.042Z,20576
2016-07-26T11:53:53.032Z,19136
2016-07-26T11:54:53.040Z,14836
2016-07-26T11:55:53.043Z,15468
2016-07-26T11:56:53.046Z,17536
2016-07-26T11:57:53.068Z,44320
2016-07-26T11:58:53.035Z,31072
2016-07-26T11:59:53.043Z,16384
2016-07-26T12:00:53.043Z,15824
2016-07-26T12:01:53.701Z,14984
2016-07-26T12:02:53.584Z,27200
2016-07-26T12:03:56.817Z,77024
2016-07-26T12:04:53.071Z,23136
2016-07-26T12:05:53.752Z,19424
2016-07-26T12:06:53.029Z,16096
2016-07-26T12:07:53.060Z,15540
2016-07-26T12:08:53.015Z,17984
2016-07-26T12:09:53.032Z,17920
2016-07-26T12:10:53.483Z,16864
2016-07-26T12:11:53.032Z,15792
2016-07-26T12:12:53.037Z,23104
2016-07-26T12:13:53.084Z,25376
2016-07-26T12:14:53.091Z,98080
2016-07-26T12:15:53.048Z,41152
2016-07-26T12:16:53.066Z,25280
2016-07-26T12:17:53.056Z,17408
2016-07-26T12:18:53.070Z,16672
2016-07-26T12:19:53.992Z,16512
2016-07-26T12:20:53.041Z,16800
2016-07-26T12:21:53.057Z,24128
2016-07-26T12:22:53.090Z,48832
2016-07-26T12:23:53.071Z,65664
2016-07-26T12:24:53.044Z,20224
2016-07-26T12:25:53.598Z,16288
2016-07-26T12:26:53.233Z,24288
2016-07-26T12:27:53.101Z,54400
2016-07-26T12:28:53.046Z,23200
2016-07-26T12:29:53.305Z,21600
2016-07-26T12:30:53.057Z,25760
2016-07-26T12:31:53.083Z,38688
2016-07-26T12:32:53.089Z,32992
2016-07-26T12:33:53.076Z,29856
2016-07-26T12:34:53.104Z,21216
2016-07-26T12:35:54.263Z,19520
2016-07-26T12:36:53.079Z,18336
2016-07-26T12:37:53.077Z,25536
2016-07-26T12:38:53.075Z,17632
2016-07-26T12:39:53.318Z,24640
2016-07-26T12:40:53.116Z,22336
2016-07-26T12:41:53.088Z,18272
2016-07-26T12:42:53.102Z,17504
2016-07-26T12:43:53.053Z,13372
2016-07-26T12:44:55.030Z,15704
2016-07-26T12:45:53.121Z,16320
2016-07-26T12:46:54.061Z,23904
2016-07-26T12:47:53.171Z,14672
2016-07-26T12:48:53.083Z,15092
2016-07-26T12:50:53.069Z,22016
2016-07-26T12:51:53.117Z,20256
2016-07-26T12:52:53.106Z,17856
2016-07-26T12:53:53.145Z,14484
2016-07-26T12:54:53.255Z,13928
2016-07-26T12:55:53.266Z,11552
2016-07-26T12:56:54.858Z,10216
2016-07-26T12:57:53.087Z,10440
2016-07-26T12:58:53.109Z,11576
2016-07-26T13:00:01.951Z,11028
2016-07-26T13:01:01.890Z,10780
2016-07-26T13:02:01.836Z,9628
2016-07-26T13:03:01.881Z,11492
2016-07-26T13:04:33.287Z,13720
2016-07-26T13:05:01.895Z,13156
2016-07-26T13:06:10.028Z,10452
2016-07-26T13:07:01.871Z,10052
2016-07-26T13:08:01.928Z,12616
2016-07-26T13:09:01.894Z,18848
2016-07-26T13:10:01.931Z,19808
2016-07-26T13:11:01.897Z,31872
2016-07-26T13:12:01.867Z,12896
2016-07-26T13:13:01.894Z,13392
2016-07-26T13:14:01.885Z,11788
2016-07-26T13:15:01.844Z,11728
2016-07-26T13:16:01.965Z,13308
2016-07-26T13:17:01.827Z,32704
2016-07-26T13:18:20.470Z,27488
2016-07-26T13:19:01.878Z,20512
2016-07-26T13:20:01.919Z,16036
2016-07-26T13:21:01.879Z,13996
2016-07-26T13:22:01.852Z,14308
2016-07-26T13:23:02.063Z,17216
2016-07-26T13:24:01.843Z,14592
2016-07-26T13:25:01.833Z,13808
2016-07-26T13:26:01.871Z,12908
2016-07-26T13:27:01.916Z,12548
2016-07-26T13:28:02.550Z,12616
2016-07-26T13:29:01.933Z,11428
2016-07-26T13:30:01.925Z,10960
2016-07-26T13:31:01.881Z,10528
2016-07-26T13:32:01.931Z,11996
2016-07-26T13:33:01.895Z,11440
2016-07-26T13:34:02.980Z,10612
2016-07-26T13:35:01.882Z,10332
2016-07-26T13:36:01.893Z,10776
2016-07-26T13:37:02.582Z,10444
2016-07-26T13:38:01.869Z,11252
2016-07-26T13:39:01.875Z,12356
2016-07-26T13:40:01.912Z,25536
2016-07-26T13:41:01.949Z,13088
2016-07-26T13:42:01.877Z,12396
2016-07-26T13:43:01.904Z,11860
2016-07-26T13:44:01.916Z,11932
2016-07-26T13:45:01.867Z,11160
2016-07-26T13:46:02.215Z,11776
2016-07-26T13:47:01.930Z,10372
2016-07-26T13:48:01.889Z,9752
2016-07-26T13:49:07.246Z,10280
2016-07-26T13:50:01.980Z,10548
2016-07-26T13:51:02.019Z,10400
2016-07-26T13:52:02.454Z,9972
2016-07-26T13:53:02.224Z,10012
2016-07-26T13:54:01.996Z,9804
2016-07-26T13:55:01.974Z,10164
2016-07-26T13:56:08.328Z,10484
2016-07-26T13:57:01.998Z,11120
2016-07-26T13:58:01.899Z,10988
2016-07-26T13:59:02.968Z,11048
2016-07-26T14:00:01.929Z,10620
2016-07-26T14:01:01.987Z,10800
2016-07-26T14:02:01.946Z,11200
2016-07-26T14:03:02.004Z,10696
2016-07-26T14:04:01.890Z,9760
2016-07-26T14:05:01.900Z,11316
2016-07-26T14:06:01.982Z,10864
2016-07-26T14:07:01.931Z,9640
2016-07-26T14:08:01.912Z,9948
2016-07-26T14:09:02.072Z,10844
2016-07-26T14:10:01.989Z,10024
2016-07-26T14:11:01.931Z,9140
2016-07-26T14:12:01.915Z,8220
2016-07-26T14:13:01.955Z,7296
2016-07-26T14:14:01.916Z,7408
2016-07-26T14:15:01.990Z,7512
2016-07-26T14:16:01.961Z,7500
2016-07-26T14:17:01.941Z,8024
2016-07-26T14:18:01.936Z,8288
2016-07-26T14:19:01.961Z,7744
2016-07-26T14:20:01.982Z,7456
2016-07-26T14:21:02.096Z,7012
2016-07-26T14:22:01.962Z,6964
2016-07-26T14:23:01.917Z,7544
2016-07-26T14:24:01.948Z,8040
2016-07-26T14:25:01.936Z,8088
2016-07-26T14:26:01.975Z,7572
2016-07-26T14:27:01.943Z,7320
2016-07-26T14:28:01.955Z,8824
2016-07-26T14:29:01.954Z,9304
2016-07-26T14:30:01.890Z,8684
2016-07-26T14:31:01.956Z,7680
2016-07-26T14:32:01.976Z,6368